createdAt,value
2019-03-22T00:02:34.764Z,99597.14
2019-03-22T00:05:39.213Z,99603.97
2019-03-22T00:08:43.652Z,99595.08
2019-03-22T00:11:48.073Z,99587.52
2019-03-22T00:14:52.568Z,99581.37
2019-03-22T00:17:56.950Z,99584.97
2019-03-22T00:21:01.713Z,99592.64
2019-03-22T00:24:06.446Z,99584.95
2019-03-22T00:27:16.367Z,99586.69
2019-03-22T00:30:17.447Z,99582.09
2019-03-22T00:33:21.886Z,99578.20
2019-03-22T00:36:26.596Z,99583.11
2019-03-22T00:39:31.041Z,99584.51
2019-03-22T00:42:35.482Z,99580.61
2019-03-22T00:45:39.921Z,99576.41
2019-03-22T00:48:44.699Z,99577.64
2019-03-22T00:51:49.130Z,99576.20
2019-03-22T00:54:53.573Z,99576.13
2019-03-22T00:57:57.997Z,99570.68
2019-03-22T01:01:02.435Z,99561.80
2019-03-22T01:04:06.875Z,99563.09
2019-03-22T01:07:11.774Z,99559.11
2019-03-22T01:10:16.270Z,99555.45
2019-03-22T01:13:20.702Z,99548.39
2019-03-22T01:16:25.142Z,99551.97
2019-03-22T01:19:29.639Z,99555.40
2019-03-22T01:22:34.015Z,99549.84
2019-03-22T01:25:38.451Z,99554.60
2019-03-22T01:28:43.127Z,99547.34
2019-03-22T01:31:47.855Z,99548.76
2019-03-22T01:34:52.595Z,99544.51
2019-03-22T01:37:57.326Z,99540.70
2019-03-22T01:41:01.760Z,99543.50
2019-03-22T01:44:06.482Z,99549.19
2019-03-22T01:47:10.923Z,99551.72
2019-03-22T01:50:19.172Z,99551.47
2019-03-22T01:53:23.597Z,99545.33
2019-03-22T01:56:28.367Z,99542.42
2019-03-22T01:59:33.095Z,99530.64
2019-03-22T02:02:37.528Z,99533.59
2019-03-22T02:05:47.726Z,99539.40
2019-03-22T02:08:52.529Z,99536.19
2019-03-22T02:11:57.245Z,99533.70
2019-03-22T02:15:01.977Z,99539.70
2019-03-22T02:18:06.701Z,99547.53
2019-03-22T02:21:11.437Z,99546.91
2019-03-22T02:24:16.169Z,99537.36
2019-03-22T02:27:20.594Z,99542.86
2019-03-22T02:30:25.026Z,99541.39
2019-03-22T02:33:29.462Z,99541.69
2019-03-22T02:36:33.900Z,99540.64
2019-03-22T02:39:38.389Z,99533.95
2019-03-22T02:42:42.944Z,99528.42
2019-03-22T02:45:47.854Z,99527.80
2019-03-22T02:48:52.275Z,99532.73
2019-03-22T02:51:57.004Z,99534.48
2019-03-22T02:55:01.460Z,99533.65
2019-03-22T02:58:19.872Z,99525.47
2019-03-22T03:01:12.182Z,99525.58
2019-03-22T03:04:16.617Z,99529.88
2019-03-22T03:07:21.370Z,99533.95
2019-03-22T03:10:26.312Z,99529.33
2019-03-22T03:13:30.736Z,99533.88
2019-03-22T03:16:35.765Z,99532.12
2019-03-22T03:19:40.443Z,99531.30
2019-03-22T03:22:44.946Z,99532.32
2019-03-22T03:25:49.370Z,99539.66
2019-03-22T03:28:54.261Z,99534.58
2019-03-22T03:31:58.701Z,99530.75
2019-03-22T03:35:03.156Z,99533.73
2019-03-22T03:38:08.068Z,99539.71
2019-03-22T03:41:12.998Z,99535.45
2019-03-22T03:44:17.428Z,99541.25
2019-03-22T03:47:21.977Z,99540.83
2019-03-22T03:50:26.397Z,99542.02
2019-03-22T03:53:30.829Z,99543.74
2019-03-22T03:56:35.288Z,99545.20
2019-03-22T03:59:39.704Z,99548.05
2019-03-22T04:02:44.890Z,99545.47
2019-03-22T04:05:49.633Z,99551.82
2019-03-22T04:08:54.070Z,99554.77
2019-03-22T04:11:58.778Z,99555.20
2019-03-22T04:15:03.470Z,99561.36
2019-03-22T04:18:07.908Z,99559.91
2019-03-22T04:21:12.346Z,99557.64
2019-03-22T04:24:16.788Z,99561.68
2019-03-22T04:27:21.229Z,99568.23
2019-03-22T04:30:25.663Z,99557.95
2019-03-22T04:33:30.102Z,99568.66
2019-03-22T04:36:34.876Z,99569.87
2019-03-22T04:39:39.316Z,99565.34
2019-03-22T04:42:43.764Z,99562.30
2019-03-22T04:45:48.831Z,99569.56
2019-03-22T04:48:54.154Z,99570.32
2019-03-22T04:51:59.118Z,99564.65
2019-03-22T04:55:05.306Z,99565.53
2019-03-22T04:58:12.308Z,99570.05
2019-03-22T05:01:18.469Z,99571.64
2019-03-22T05:04:25.585Z,99573.90
2019-03-22T05:07:30.894Z,99573.02
2019-03-22T05:10:37.262Z,99570.25
2019-03-22T05:13:44.334Z,99572.71
2019-03-22T05:16:50.947Z,99568.67
2019-03-22T05:19:58.121Z,99567.55
2019-03-22T05:23:04.374Z,99566.91
2019-03-22T05:26:09.733Z,99567.87
2019-03-22T05:29:15.118Z,99565.22
2019-03-22T05:32:19.607Z,99572.89
2019-03-22T05:35:24.053Z,99561.94
2019-03-22T05:38:28.742Z,99566.39
2019-03-22T05:41:33.173Z,99570.73
2019-03-22T05:44:37.899Z,99574.08
2019-03-22T05:47:42.349Z,99576.52
2019-03-22T05:50:46.777Z,99572.58
2019-03-22T05:53:51.472Z,99568.99
2019-03-22T05:56:55.911Z,99577.45
2019-03-22T06:00:00.354Z,99578.39
2019-03-22T06:03:05.163Z,99582.54
2019-03-22T06:06:09.596Z,99586.03
2019-03-22T06:09:14.037Z,99588.02
2019-03-22T06:12:18.463Z,99585.11
2019-03-22T06:15:22.903Z,99585.75
2019-03-22T06:18:27.337Z,99590.27
2019-03-22T06:21:31.783Z,99593.25
2019-03-22T06:24:36.532Z,99592.77
2019-03-22T06:27:40.966Z,99586.10
2019-03-22T06:30:45.791Z,99590.95
2019-03-22T06:33:50.222Z,99592.77
2019-03-22T06:36:54.943Z,99592.04
2019-03-22T06:39:59.678Z,99589.94
2019-03-22T06:43:04.405Z,99597.12
2019-03-22T06:46:09.132Z,99595.75
2019-03-22T06:49:13.574Z,99592.58
2019-03-22T06:52:18.022Z,99586.83
2019-03-22T06:55:22.473Z,99586.77
2019-03-22T06:58:26.915Z,99593.34
2019-03-22T07:01:31.770Z,99591.59
2019-03-22T07:04:36.493Z,99598.13
2019-03-22T07:07:41.232Z,99602.66
2019-03-22T07:10:45.667Z,99596.09
2019-03-22T07:13:50.378Z,99595.67
2019-03-22T07:16:54.851Z,99588.39
2019-03-22T07:19:59.354Z,99591.88
2019-03-22T07:23:04.058Z,99595.69
2019-03-22T07:26:08.786Z,99589.19
2019-03-22T07:29:13.232Z,99591.89
2019-03-22T07:32:17.691Z,99599.98
2019-03-22T07:35:22.485Z,99599.95
2019-03-22T07:38:26.918Z,99595.81
2019-03-22T07:41:31.626Z,99597.56
2019-03-22T07:44:36.358Z,99599.80
2019-03-22T07:47:41.089Z,99596.25
2019-03-22T07:50:45.819Z,99593.45
2019-03-22T07:53:50.254Z,99578.81
2019-03-22T07:56:54.971Z,99572.84
2019-03-22T07:59:59.410Z,99568.23
2019-03-22T08:03:04.123Z,99563.98
2019-03-22T08:06:08.575Z,99552.80
2019-03-22T08:09:13.001Z,99548.50
2019-03-22T08:12:19.491Z,99547.36
2019-03-22T08:15:30.063Z,99545.92
2019-03-22T08:18:34.741Z,99550.52
2019-03-22T08:21:39.213Z,99555.20
2019-03-22T08:24:43.647Z,99547.27
2019-03-22T08:27:48.060Z,99546.84
2019-03-22T08:30:52.868Z,99548.35
2019-03-22T08:33:57.575Z,99546.51
2019-03-22T08:37:02.012Z,99548.40
2019-03-22T08:40:08.169Z,99542.10
2019-03-22T08:43:12.611Z,99537.05
2019-03-22T08:46:17.058Z,99535.28
2019-03-22T08:49:21.878Z,99541.02
2019-03-22T08:52:26.504Z,99538.30
2019-03-22T08:55:30.941Z,99528.64
2019-03-22T08:58:35.410Z,99524.49
2019-03-22T09:01:39.819Z,99529.06
2019-03-22T09:04:44.581Z,99525.42
2019-03-22T09:07:49.091Z,99527.09
2019-03-22T09:10:53.554Z,99518.97
2019-03-22T09:13:58.565Z,99514.59
2019-03-22T09:17:03.042Z,99516.05
2019-03-22T09:20:11.701Z,99511.03
2019-03-22T09:23:16.159Z,99509.91
2019-03-22T09:26:20.595Z,99514.25
2019-03-22T09:29:25.303Z,99521.08
2019-03-22T09:32:30.022Z,99518.19
2019-03-22T09:35:34.465Z,99516.46
2019-03-22T09:38:38.991Z,99504.34
2019-03-22T09:41:43.409Z,99502.57
2019-03-22T09:44:48.910Z,99503.35
2019-03-22T09:47:53.618Z,99499.33
2019-03-22T09:50:58.357Z,99492.19
2019-03-22T09:54:03.060Z,99494.69
2019-03-22T09:57:07.977Z,99496.81
2019-03-22T10:00:29.153Z,99484.10
2019-03-22T10:03:33.549Z,99481.81
2019-03-22T10:06:38.266Z,99492.06
2019-03-22T10:09:42.684Z,99488.28
2019-03-22T10:12:47.136Z,99480.26
2019-03-22T10:15:51.924Z,99475.67
2019-03-22T10:18:56.378Z,99473.79
2019-03-22T10:22:01.087Z,99467.02
2019-03-22T10:25:08.047Z,99469.45
2019-03-22T10:28:12.790Z,99464.76
2019-03-22T10:31:17.237Z,99463.34
2019-03-22T10:34:22.104Z,99466.33
2019-03-22T10:37:26.904Z,99456.08
2019-03-22T10:40:31.660Z,99451.75
2019-03-22T10:43:36.409Z,99442.40
2019-03-22T10:46:41.176Z,99447.84
2019-03-22T10:49:45.989Z,99446.73
2019-03-22T10:52:50.448Z,99442.64
2019-03-22T10:55:55.162Z,99441.11
2019-03-22T10:58:59.895Z,99438.02
2019-03-22T11:02:07.679Z,99432.42
2019-03-22T11:05:11.303Z,99435.14
2019-03-22T11:08:16.039Z,99433.64
2019-03-22T11:11:20.482Z,99433.86
2019-03-22T11:14:24.935Z,99430.98
2019-03-22T11:17:29.379Z,99427.39
2019-03-22T11:20:33.873Z,99425.42
2019-03-22T11:23:38.334Z,99427.22
2019-03-22T11:26:43.085Z,99425.42
2019-03-22T11:29:47.812Z,99420.70
2019-03-22T11:32:52.544Z,99423.51
2019-03-22T11:35:57.000Z,99415.18
2019-03-22T11:39:03.897Z,99405.06
2019-03-22T11:42:07.667Z,99412.99
2019-03-22T11:45:20.460Z,99408.09
2019-03-22T11:48:24.897Z,99405.52
2019-03-22T11:51:29.753Z,99396.65
2019-03-22T11:54:34.466Z,99406.11
2019-03-22T11:57:39.298Z,99393.55
2019-03-22T12:00:44.024Z,99385.80
2019-03-22T12:03:48.493Z,99385.89
2019-03-22T12:06:52.945Z,99378.97
2019-03-22T12:09:57.709Z,99373.59
2019-03-22T12:13:02.152Z,99374.17
2019-03-22T12:16:06.966Z,99376.87
2019-03-22T12:19:11.408Z,99375.58
2019-03-22T12:22:15.870Z,99372.08
2019-03-22T12:25:25.791Z,99367.01
2019-03-22T12:28:30.604Z,99364.09
2019-03-22T12:31:35.054Z,99369.14
2019-03-22T12:34:39.516Z,99364.41
2019-03-22T12:37:44.595Z,99357.97
2019-03-22T12:40:49.046Z,99357.48
2019-03-22T12:43:53.736Z,99357.08
2019-03-22T12:46:58.480Z,99356.84
2019-03-22T12:50:03.209Z,99361.36
2019-03-22T12:53:07.939Z,99349.07
2019-03-22T12:56:12.398Z,99346.73
2019-03-22T12:59:16.839Z,99340.53
2019-03-22T13:02:21.632Z,99339.64
2019-03-22T13:05:26.857Z,99332.59
2019-03-22T13:08:31.273Z,99330.56
2019-03-22T13:11:35.726Z,99324.95
2019-03-22T13:14:40.436Z,99321.02
2019-03-22T13:17:44.882Z,99317.97
2019-03-22T13:20:51.092Z,99312.52
2019-03-22T13:23:55.955Z,99310.41
2019-03-22T13:27:00.401Z,99316.75
2019-03-22T13:30:29.581Z,99302.63
2019-03-22T13:33:34.315Z,99300.03
2019-03-22T13:36:38.757Z,99302.44
2019-03-22T13:39:43.469Z,99296.41
2019-03-22T13:42:47.921Z,99292.04
2019-03-22T13:45:52.368Z,99286.52
2019-03-22T13:48:57.195Z,99292.40
2019-03-22T13:52:01.611Z,99284.87
2019-03-22T13:55:07.768Z,99285.55
2019-03-22T13:58:12.213Z,99279.78
2019-03-22T14:01:16.996Z,99273.58
2019-03-22T14:04:21.726Z,99268.41
2019-03-22T14:07:26.459Z,99266.00
2019-03-22T14:10:36.316Z,99257.14
2019-03-22T14:13:40.754Z,99267.85
2019-03-22T14:16:45.212Z,99258.54
2019-03-22T14:19:49.646Z,99255.83
2019-03-22T14:22:54.418Z,99255.61
2019-03-22T14:25:58.862Z,99256.13
2019-03-22T14:29:03.312Z,99259.09
2019-03-22T14:32:08.501Z,99250.31
2019-03-22T14:35:13.239Z,99248.60
2019-03-22T14:38:17.675Z,99244.73
2019-03-22T14:41:22.395Z,99236.08
2019-03-22T14:44:28.273Z,99236.38
2019-03-22T14:47:32.844Z,99226.63
2019-03-22T14:50:37.284Z,99231.52
2019-03-22T14:53:41.730Z,99225.45
2019-03-22T14:56:46.555Z,99227.45
2019-03-22T14:59:58.541Z,99227.36
2019-03-22T15:02:57.757Z,99223.97
2019-03-22T15:06:02.488Z,99228.00
2019-03-22T15:09:08.272Z,99224.16
2019-03-22T15:12:12.802Z,99217.13
2019-03-22T15:15:17.007Z,99211.17
2019-03-22T15:18:33.289Z,99207.56
2019-03-22T15:21:55.751Z,99204.75
2019-03-22T15:25:05.944Z,99202.39
2019-03-22T15:28:27.231Z,99196.42
2019-03-22T15:31:49.655Z,99196.43
2019-03-22T15:35:12.193Z,99194.06
2019-03-22T15:38:33.525Z,99199.35
2019-03-22T15:41:38.355Z,99198.53
2019-03-22T15:44:43.089Z,99197.70
2019-03-22T15:47:47.817Z,99200.31
2019-03-22T15:50:52.551Z,99194.40
2019-03-22T15:53:57.277Z,99194.11
2019-03-22T15:57:01.912Z,99186.86
2019-03-22T16:00:11.245Z,99192.95
2019-03-22T16:03:15.985Z,99189.98
2019-03-22T16:06:20.562Z,99192.03
2019-03-22T16:09:25.015Z,99195.83
2019-03-22T16:12:29.762Z,99193.63
2019-03-22T16:15:34.493Z,99184.47
2019-03-22T16:18:38.940Z,99192.72
2019-03-22T16:21:43.649Z,99191.47
2019-03-22T16:24:48.381Z,99197.27
2019-03-22T16:27:52.824Z,99198.58
2019-03-22T16:30:57.267Z,99200.13
2019-03-22T16:34:02.059Z,99197.96
2019-03-22T16:37:06.502Z,99194.84
2019-03-22T16:40:23.657Z,99201.22
2019-03-22T16:43:20.295Z,99206.16
2019-03-22T16:46:24.733Z,99200.86
2019-03-22T16:49:29.192Z,99200.70
2019-03-22T16:52:33.637Z,99195.91
2019-03-22T16:55:38.097Z,99202.52
2019-03-22T16:58:42.555Z,99200.75
2019-03-22T17:01:46.994Z,99206.23
2019-03-22T17:04:51.832Z,99199.72
2019-03-22T17:07:56.276Z,99197.94
2019-03-22T17:11:00.979Z,99199.50
2019-03-22T17:14:06.008Z,99206.52
2019-03-22T17:17:10.553Z,99205.73
2019-03-22T17:20:15.342Z,99210.42
2019-03-22T17:23:20.112Z,99209.22
2019-03-22T17:26:24.846Z,99209.63
2019-03-22T17:29:29.287Z,99210.80
2019-03-22T17:32:33.991Z,99210.59
2019-03-22T17:35:38.730Z,99213.62
2019-03-22T17:38:43.180Z,99218.11
2019-03-22T17:41:47.618Z,99216.37
2019-03-22T17:44:52.405Z,99217.85
2019-03-22T17:47:57.137Z,99220.00
2019-03-22T17:51:01.858Z,99223.95
2019-03-22T17:54:06.310Z,99222.16
2019-03-22T17:57:18.395Z,99229.17
2019-03-22T18:00:20.631Z,99227.84
2019-03-22T18:03:25.389Z,99227.58
2019-03-22T18:06:29.849Z,99231.33
2019-03-22T18:09:34.300Z,99231.34
2019-03-22T18:12:39.067Z,99231.63
2019-03-22T18:15:43.805Z,99232.14
2019-03-22T18:18:48.561Z,99232.95
2019-03-22T18:21:54.595Z,99231.60
2019-03-22T18:24:59.105Z,99231.85
2019-03-22T18:28:03.551Z,99230.66
2019-03-22T18:31:08.274Z,99230.36
2019-03-22T18:34:12.749Z,99232.14
2019-03-22T18:37:17.529Z,99237.38
2019-03-22T18:40:21.977Z,99244.52
2019-03-22T18:43:26.689Z,99241.47
2019-03-22T18:46:31.145Z,99239.44
2019-03-22T18:49:35.601Z,99241.48
2019-03-22T18:52:40.041Z,99245.97
2019-03-22T18:55:44.790Z,99245.22
2019-03-22T18:58:49.521Z,99244.59
2019-03-22T19:01:53.969Z,99241.52
2019-03-22T19:04:58.684Z,99241.94
2019-03-22T19:08:03.402Z,99243.91
2019-03-22T19:11:08.138Z,99244.80
2019-03-22T19:14:12.870Z,99243.50
2019-03-22T19:17:17.318Z,99241.53
2019-03-22T19:20:22.017Z,99238.69
2019-03-22T19:23:26.458Z,99245.22
2019-03-22T19:26:30.910Z,99244.88
2019-03-22T19:29:35.710Z,99242.45
2019-03-22T19:32:40.430Z,99243.91
2019-03-22T19:35:44.883Z,99242.21
2019-03-22T19:38:49.328Z,99249.41
2019-03-22T19:41:53.778Z,99241.13
2019-03-22T19:44:58.536Z,99248.92
2019-03-22T19:48:02.985Z,99250.78
2019-03-22T19:51:07.433Z,99243.38
2019-03-22T19:54:11.876Z,99247.62
2019-03-22T19:57:16.638Z,99249.09
2019-03-22T20:00:21.575Z,99247.34
2019-03-22T20:03:26.310Z,99245.23
2019-03-22T20:06:30.753Z,99248.31
2019-03-22T20:09:35.206Z,99254.73
2019-03-22T20:12:39.647Z,99252.93
2019-03-22T20:15:44.104Z,99250.62
2019-03-22T20:18:48.537Z,99252.26
2019-03-22T20:21:52.993Z,99251.02
2019-03-22T20:24:57.442Z,99254.34
2019-03-22T20:28:02.304Z,99257.27
2019-03-22T20:31:06.752Z,99251.27
2019-03-22T20:34:11.191Z,99252.91
2019-03-22T20:37:15.626Z,99251.30
2019-03-22T20:40:20.598Z,99254.05
2019-03-22T20:43:25.046Z,99253.06
2019-03-22T20:46:29.491Z,99252.77
2019-03-22T20:49:33.919Z,99258.82
2019-03-22T20:52:38.371Z,99256.50
2019-03-22T20:55:43.142Z,99260.08
2019-03-22T20:58:47.584Z,99260.91
2019-03-22T21:01:52.300Z,99266.09
2019-03-22T21:04:56.722Z,99264.98
2019-03-22T21:08:01.166Z,99258.92
2019-03-22T21:11:05.972Z,99258.91
2019-03-22T21:14:10.398Z,99260.47
2019-03-22T21:17:16.247Z,99255.88
2019-03-22T21:20:20.877Z,99262.50
2019-03-22T21:23:35.740Z,99259.04
2019-03-22T21:26:31.477Z,99256.79
2019-03-22T21:29:44.144Z,99263.05
2019-03-22T21:32:45.602Z,99260.56
2019-03-22T21:35:49.660Z,99260.16
2019-03-22T21:38:54.111Z,99261.50
2019-03-22T21:41:58.814Z,99258.97
2019-03-22T21:45:03.954Z,99259.39
2019-03-22T21:48:08.683Z,99250.02
2019-03-22T21:51:13.107Z,99253.00
2019-03-22T21:54:17.547Z,99258.77
2019-03-22T21:57:21.990Z,99259.94
2019-03-22T22:00:26.420Z,99260.56
2019-03-22T22:03:31.110Z,99261.79
2019-03-22T22:06:35.544Z,99257.64
2019-03-22T22:09:39.992Z,99261.00
2019-03-22T22:12:44.684Z,99258.94
2019-03-22T22:15:49.130Z,99259.25
2019-03-22T22:18:53.841Z,99257.33
2019-03-22T22:21:58.286Z,99256.75
2019-03-22T22:25:02.986Z,99247.73
2019-03-22T22:28:07.729Z,99253.91
2019-03-22T22:31:12.161Z,99254.30
2019-03-22T22:34:16.601Z,99256.03
2019-03-22T22:37:21.035Z,99258.56
2019-03-22T22:40:25.722Z,99255.89
2019-03-22T22:43:32.881Z,99253.97
2019-03-22T22:46:37.442Z,99249.35
2019-03-22T22:49:41.889Z,99254.61
2019-03-22T22:52:46.596Z,99255.02
2019-03-22T22:55:51.325Z,99249.36
2019-03-22T22:58:55.774Z,99255.68
2019-03-22T23:02:00.483Z,99256.06
2019-03-22T23:05:06.458Z,99258.15
2019-03-22T23:08:10.895Z,99251.27
2019-03-22T23:11:15.507Z,99256.09
2019-03-22T23:14:19.949Z,99254.77
2019-03-22T23:17:24.648Z,99248.40
2019-03-22T23:20:29.095Z,99253.87
2019-03-22T23:23:33.530Z,99248.14
2019-03-22T23:26:38.227Z,99250.38
2019-03-22T23:29:42.952Z,99246.69
2019-03-22T23:32:47.688Z,99259.43
2019-03-22T23:35:52.130Z,99254.48
2019-03-22T23:38:56.587Z,99259.44
2019-03-22T23:42:00.999Z,99261.72
2019-03-22T23:45:09.264Z,99258.58
2019-03-22T23:48:13.694Z,99258.33
2019-03-22T23:51:18.130Z,99262.06
2019-03-22T23:54:22.847Z,99270.34
2019-03-22T23:57:27.286Z,99263.01
